Time;durP1;ratioP1;P1;durP2;ratioP2;P2;SDS_P1;SDS_P2;PMS_P1;PMS_P2;Temp;Humidity;BMP_temperature;BMP_pressure;BME280_temperature;BME280_humidity;BME280_pressure;Samples;Min_cycle;Max_cycle;Signal;HPM_P1;HPM_P2
2022/08/11 00:02:32;;;;;;;6.97;2.38;;;23.50;57.90;;;;;;5117145;28;20030;-69
2022/08/11 00:05:07;;;;;;;2.17;1.60;;;23.40;57.80;;;;;;5118924;28;20024;-69
2022/08/11 00:07:33;;;;;;;5.93;1.63;;;23.40;57.90;;;;;;5117694;28;20024;-67
2022/08/11 00:10:00;;;;;;;4.28;2.20;;;23.40;57.80;;;;;;5117295;28;20454;-68
2022/08/11 00:12:26;;;;;;;4.90;1.50;;;23.40;57.70;;;;;;5116582;28;20024;-68
2022/08/11 00:14:56;;;;;;;;;;;23.40;57.80;;;;;;5119980;28;20098;-68
2022/08/11 00:17:27;;;;;;;2.97;1.70;;;23.40;57.90;;;;;;5118846;28;20386;-68
2022/08/11 00:20:01;;;;;;;3.92;1.42;;;23.40;57.80;;;;;;5118390;28;20066;-68
2022/08/11 00:22:28;;;;;;;1.98;1.33;;;23.40;57.70;;;;;;5117641;28;20020;-67
2022/08/11 00:24:55;;;;;;;3.35;1.98;;;23.40;57.70;;;;;;5118207;28;20088;-68
2022/08/11 00:27:36;;;;;;;2.85;1.50;;;23.10;58.00;;;;;;5116710;28;20049;-67
2022/08/11 00:30:04;;;;;;;2.17;1.40;;;23.00;58.40;;;;;;5119586;28;20498;-67
2022/08/11 00:32:30;;;;;;;1.90;1.40;;;22.90;58.90;;;;;;5117508;28;20404;-67
2022/08/11 00:34:57;;;;;;;;;;;22.90;59.10;;;;;;5118025;28;20026;-68
2022/08/11 00:37:23;;;;;;;3.97;1.67;;;22.90;59.30;;;;;;5117938;28;19907;-68
2022/08/11 00:39:52;;;;;;;2.50;1.25;;;22.60;59.60;;;;;;5117896;28;20016;-67
2022/08/11 00:42:45;;;;;;;4.35;1.50;;;22.50;60.10;;;;;;5117533;28;20024;-68
2022/08/11 00:45:33;;;;;;;3.22;1.20;;;22.40;60.20;;;;;;5117300;28;20031;-67
2022/08/11 00:48:28;;;;;;;3.10;1.60;;;22.30;60.30;;;;;;5117827;28;20057;-67
2022/08/11 00:51:22;;;;;;;2.47;1.63;;;22.20;60.50;;;;;;5115529;28;20028;-67
2022/08/11 00:54:19;;;;;;;4.20;1.83;;;22.10;60.70;;;;;;5116672;28;20076;-66
2022/08/11 00:57:19;;;;;;;4.63;1.58;;;21.90;61.00;;;;;;5116790;28;20026;-66
2022/08/11 00:59:53;;;;;;;2.05;1.55;;;21.90;61.30;;;;;;5114775;28;20019;-67
2022/08/11 01:02:24;;;;;;;1.85;1.40;;;21.70;61.60;;;;;;5115936;28;20502;-67
2022/08/11 01:05:22;;;;;;;4.35;1.80;;;21.60;61.90;;;;;;5116830;28;20027;-66
2022/08/11 01:08:32;;;;;;;3.67;1.48;;;21.40;62.20;;;;;;5062735;28;20528;-67
2022/08/11 01:11:25;;;;;;;4.43;1.40;;;21.30;62.50;;;;;;5119812;28;20100;-67
2022/08/11 01:14:42;;;;;;;4.57;1.60;;;21.20;62.70;;;;;;5119497;28;20028;-68
2022/08/11 01:17:34;;;;;;;2.72;1.85;;;21.20;62.90;;;;;;5094359;28;20081;-67
2022/08/11 01:20:32;;;;;;;3.17;1.73;;;21.30;62.70;;;;;;5117335;28;20464;-67
2022/08/11 01:23:46;;;;;;;4.15;2.17;;;21.40;62.40;;;;;;5117113;28;20107;-67
2022/08/11 01:26:33;;;;;;;4.90;1.65;;;21.50;62.20;;;;;;5114465;22;20143;-68
2022/08/11 01:29:52;;;;;;;2.55;1.75;;;21.40;62.30;;;;;;5096163;28;20376;-68
2022/08/11 01:32:33;;;;;;;2.95;1.70;;;21.30;62.70;;;;;;5096338;28;20062;-69
2022/08/11 01:35:20;;;;;;;4.45;1.67;;;21.30;63.00;;;;;;5094465;28;20102;-69
2022/08/11 01:37:52;;;;;;;3.58;1.98;;;21.20;63.10;;;;;;5097141;28;20104;-69
2022/08/11 01:40:55;;;;;;;4.72;1.83;;;21.10;63.50;;;;;;5096085;28;20027;-69
2022/08/11 01:46:28;;;;;;;3.22;1.40;;;21.00;63.90;;;;;;5095315;28;20101;-68
2022/08/11 01:49:13;;;;;;;3.88;1.55;;;21.00;63.90;;;;;;5095084;28;20068;-68
2022/08/11 01:52:03;;;;;;;3.67;1.70;;;20.90;64.20;;;;;;5095470;28;20016;-68
2022/08/11 01:54:42;;;;;;;5.68;2.00;;;21.00;64.10;;;;;;5093946;28;20529;-68
2022/08/11 01:57:34;;;;;;;3.63;1.88;;;20.90;64.10;;;;;;5095397;28;20047;-69
2022/08/11 02:00:11;;;;;;;5.47;1.92;;;20.80;64.30;;;;;;5095511;28;20061;-69
2022/08/11 02:02:46;;;;;;;;;;;20.80;64.80;;;;;;5094121;28;20024;-68
2022/08/11 02:05:27;;;;;;;2.75;1.95;;;20.80;64.90;;;;;;5093844;28;20014;-68
2022/08/11 02:08:27;;;;;;;3.33;1.70;;;20.70;64.90;;;;;;5094183;28;20028;-68
2022/08/11 02:11:35;;;;;;;2.75;1.70;;;20.70;65.00;;;;;;5092566;28;20123;-68
2022/08/11 02:14:22;;;;;;;3.47;1.63;;;20.60;65.20;;;;;;5095243;28;20024;-68
2022/08/11 02:16:52;;;;;;;4.10;1.80;;;20.50;65.50;;;;;;5094785;28;20468;-70
2022/08/11 02:25:43;;;;;;;4.47;1.80;;;20.30;66.10;;;;;;5094220;28;20051;-69
2022/08/11 02:28:27;;;;;;;1.83;1.60;;;20.30;66.20;;;;;;5093591;28;20051;-69
2022/08/11 02:34:05;;;;;;;3.03;1.70;;;20.30;66.20;;;;;;5095050;28;20035;-68
2022/08/11 02:36:42;;;;;;;4.85;2.05;;;20.10;66.30;;;;;;5095184;28;20099;-68
2022/08/11 02:39:10;;;;;;;3.55;1.80;;;20.10;66.50;;;;;;5094446;28;20012;-68
2022/08/11 02:42:21;;;;;;;2.28;1.67;;;20.00;66.60;;;;;;5094138;28;20051;-68
2022/08/11 02:45:11;;;;;;;2.47;2.03;;;20.00;66.70;;;;;;5094390;28;20024;-68
2022/08/11 02:51:17;;;;;;;3.60;1.50;;;19.80;67.20;;;;;;5095104;28;20504;-68
2022/08/11 02:54:00;;;;;;;3.38;1.77;;;19.70;67.40;;;;;;5093295;28;20036;-68
2022/08/11 02:56:50;;;;;;;2.70;1.77;;;19.70;67.40;;;;;;5092722;28;20024;-68
2022/08/11 02:59:50;;;;;;;2.92;1.90;;;19.70;67.70;;;;;;5092514;28;20024;-68
2022/08/11 03:02:30;;;;;;;2.53;1.65;;;19.50;67.70;;;;;;5094076;28;20479;-68
2022/08/11 03:05:10;;;;;;;3.78;2.28;;;19.50;68.10;;;;;;5093010;28;20039;-69
2022/08/11 03:07:39;;;;;;;4.22;1.85;;;19.60;67.80;;;;;;5092748;28;20024;-68
2022/08/11 03:10:16;;;;;;;3.88;1.50;;;19.50;67.90;;;;;;5092395;28;20507;-68
2022/08/11 03:19:14;;;;;;;3.42;1.90;;;19.50;68.30;;;;;;5080440;28;20027;-69
2022/08/11 03:21:40;;;;;;;3.63;1.80;;;19.60;68.10;;;;;;5092291;28;20096;-69
2022/08/11 03:24:22;;;;;;;4.57;1.50;;;19.60;68.10;;;;;;5093630;28;20028;-68
2022/08/11 03:27:02;;;;;;;3.05;1.80;;;19.70;68.20;;;;;;5094157;28;20629;-68
2022/08/11 03:30:06;;;;;;;3.65;1.90;;;19.60;68.20;;;;;;5093731;28;20035;-68
2022/08/11 03:36:17;;;;;;;2.40;1.83;;;19.70;68.20;;;;;;5081657;28;20055;-68
2022/08/11 03:39:08;;;;;;;2.35;1.40;;;19.60;68.30;;;;;;5092074;28;20031;-68
2022/08/11 03:41:43;;;;;;;3.20;1.65;;;19.70;68.50;;;;;;5092436;28;20028;-68
2022/08/11 03:44:24;;;;;;;3.67;2.05;;;19.70;68.60;;;;;;5092459;28;20076;-68
2022/08/11 03:47:10;;;;;;;3.05;1.67;;;19.60;68.50;;;;;;5093436;28;20023;-68
2022/08/11 03:50:23;;;;;;;2.87;1.70;;;19.70;68.60;;;;;;5092963;28;20449;-68
2022/08/11 03:53:16;;;;;;;6.13;2.00;;;19.70;68.50;;;;;;5031101;28;20119;-68
2022/08/11 03:56:10;;;;;;;5.07;1.63;;;19.70;68.30;;;;;;5092406;28;20042;-68
2022/08/11 03:58:54;;;;;;;2.92;1.80;;;19.60;68.60;;;;;;5091801;28;20021;-68
2022/08/11 04:01:48;;;;;;;5.13;1.80;;;19.70;68.50;;;;;;5093077;28;20035;-69
2022/08/11 04:04:45;;;;;;;2.30;1.80;;;19.70;68.60;;;;;;5091776;28;20028;-69
2022/08/11 04:07:43;;;;;;;3.90;2.22;;;19.70;68.70;;;;;;5096335;28;20028;-68
2022/08/11 04:10:18;;;;;;;3.33;1.92;;;19.70;68.70;;;;;;5093300;28;20031;-69
2022/08/11 04:13:02;;;;;;;7.60;2.55;;;19.80;68.70;;;;;;5094513;28;20477;-69
2022/08/11 04:16:03;;;;;;;4.53;1.77;;;19.80;68.60;;;;;;5093772;28;20519;-70
2022/08/11 04:19:11;;;;;;;3.10;1.67;;;19.80;68.50;;;;;;5095207;28;20044;-69
2022/08/11 04:22:14;;;;;;;3.22;1.83;;;19.90;68.60;;;;;;5093099;28;20380;-69
2022/08/11 04:24:55;;;;;;;3.80;1.60;;;19.80;68.80;;;;;;5091379;28;20032;-69
2022/08/11 04:27:42;;;;;;;5.88;2.03;;;19.80;69.00;;;;;;5092881;28;20017;-69
2022/08/11 04:30:17;;;;;;;2.88;1.98;;;19.70;69.00;;;;;;5091490;28;20024;-69
2022/08/11 04:33:01;;;;;;;3.90;1.70;;;19.60;69.20;;;;;;5092185;28;20028;-68
2022/08/11 04:35:56;;;;;;;2.92;1.70;;;19.50;69.70;;;;;;5095034;28;20030;-68
2022/08/11 04:38:51;;;;;;;6.43;2.05;;;19.60;69.70;;;;;;5095781;28;20024;-68
2022/08/11 04:43:19;;;;;;;5.88;2.13;;;19.60;69.60;;;;;;5098598;28;20030;-68
2022/08/11 04:44:46;;;;;;;3.60;1.88;;;19.60;69.80;;;;;;5096501;28;20035;-68
2022/08/11 05:03:32;;;;;;;5.40;1.95;;;19.80;69.70;;;;;;5096405;28;20085;-69
2022/08/11 05:06:28;;;;;;;5.35;2.50;;;19.70;69.80;;;;;;5096074;28;20020;-68
2022/08/11 05:09:27;;;;;;;4.05;2.15;;;19.70;70.10;;;;;;5094613;28;20031;-68
2022/08/11 05:12:13;;;;;;;4.80;1.60;;;19.70;70.00;;;;;;5098551;28;20032;-69
2022/08/11 05:36:07;;;;;;;3.60;1.90;;;20.00;69.60;;;;;;5095659;28;20035;-72
2022/08/11 05:58:00;;;;;;;11.45;2.60;;;20.30;69.50;;;;;;5098528;28;20023;-71
2022/08/11 06:00:27;;;;;;;3.53;1.70;;;20.30;69.40;;;;;;5099645;28;20380;-71
2022/08/11 06:02:54;;;;;;;;;;;20.40;69.30;;;;;;5097234;28;20024;-72
2022/08/11 06:05:20;;;;;;;4.70;1.73;;;20.40;69.30;;;;;;5099078;28;19911;-72
2022/08/11 06:07:47;;;;;;;15.10;2.28;;;20.50;69.40;;;;;;5097778;28;20032;-73
2022/08/11 06:10:23;;;;;;;3.13;1.90;;;20.50;69.30;;;;;;5097146;28;20048;-72
2022/08/11 06:12:52;;;;;;;6.03;1.77;;;20.60;69.20;;;;;;5097449;28;20020;-72
2022/08/11 06:15:19;;;;;;;5.32;1.80;;;20.70;69.10;;;;;;5095842;28;20024;-72
2022/08/11 06:17:47;;;;;;;4.75;1.80;;;20.70;68.90;;;;;;5098742;28;20031;-72
2022/08/11 06:20:14;;;;;;;3.45;2.00;;;20.80;68.90;;;;;;5096774;28;20020;-72
2022/08/11 06:22:43;;;;;;;2.97;1.77;;;20.90;68.90;;;;;;5094367;28;20020;-72
2022/08/11 06:25:11;;;;;;;5.38;2.10;;;20.90;68.50;;;;;;5098988;28;20092;-73
2022/08/11 06:27:39;;;;;;;4.10;1.90;;;21.00;68.50;;;;;;5099795;28;20047;-72
2022/08/11 06:30:12;;;;;;;2.78;1.50;;;21.00;68.10;;;;;;5097696;28;20492;-72
2022/08/11 06:32:44;;;;;;;3.83;1.70;;;21.10;68.00;;;;;;5098284;28;20027;-72
2022/08/11 06:35:40;;;;;;;4.72;2.10;;;21.10;67.90;;;;;;5098844;28;20561;-72
2022/08/11 06:38:33;;;;;;;3.83;1.95;;;21.30;67.70;;;;;;5094993;28;20102;-72
2022/08/11 06:43:58;;;;;;;4.97;2.15;;;21.50;67.00;;;;;;5094474;28;20448;-72
2022/08/11 06:46:28;;;;;;;6.00;1.77;;;21.60;66.80;;;;;;5096602;28;20530;-72
2022/08/11 06:48:55;;;;;;;4.78;2.05;;;21.80;66.70;;;;;;5093888;28;20028;-72
2022/08/11 06:51:21;;;;;;;3.78;1.98;;;21.90;66.30;;;;;;5095468;28;20016;-72
2022/08/11 06:53:52;;;;;;;2.92;1.90;;;21.90;66.10;;;;;;5094727;28;20024;-72
2022/08/11 07:02:17;;;;;;;5.40;1.98;;;22.20;65.80;;;;;;5094129;28;20036;-71
2022/08/11 07:05:09;;;;;;;5.40;2.08;;;22.40;65.30;;;;;;5093620;28;20024;-72
2022/08/11 07:16:40;;;;;;;4.75;1.90;;;22.90;64.70;;;;;;5094494;28;20073;-72
2022/08/11 07:30:43;;;;;;;6.35;2.20;;;23.40;63.50;;;;;;5074130;28;20035;-72
2022/08/11 07:33:11;;;;;;;3.78;1.92;;;23.40;63.60;;;;;;5073521;28;20020;-71
2022/08/11 07:35:52;;;;;;;7.25;1.98;;;23.40;63.50;;;;;;5073037;28;20036;-71
2022/08/11 07:38:42;;;;;;;5.10;1.90;;;23.50;63.60;;;;;;5071835;28;20069;-71
2022/08/11 07:41:14;;;;;;;3.08;1.67;;;23.60;63.50;;;;;;5071917;28;20042;-72
2022/08/11 07:43:41;;;;;;;5.15;2.08;;;23.70;63.50;;;;;;5072854;28;20021;-72
2022/08/11 07:54:23;;;;;;;4.05;2.42;;;24.00;62.70;;;;;;5073484;28;20419;-72
2022/08/11 07:56:49;;;;;;;3.45;2.20;;;24.20;62.80;;;;;;5072671;28;20471;-72
2022/08/11 08:18:35;;;;;;;6.85;2.17;;;25.10;61.20;;;;;;5076669;28;20109;-71
2022/08/11 08:21:13;;;;;;;4.07;1.92;;;25.30;61.20;;;;;;5076207;28;20024;-71
2022/08/11 08:23:44;;;;;;;4.07;2.10;;;25.50;60.80;;;;;;5075382;28;20017;-72
2022/08/11 08:31:47;;;;;;;3.53;1.80;;;27.90;57.40;;;;;;5080703;28;20483;-73
2022/08/11 08:34:14;;;;;;;3.30;1.70;;;31.60;53.50;;;;;;5092019;28;20035;-72
2022/08/11 08:36:43;;;;;;;1.92;1.63;;;33.70;50.20;;;;;;5094159;28;20024;-72
2022/08/11 08:39:08;;;;;;;3.85;1.67;;;35.20;48.80;;;;;;5091857;28;20039;-72
2022/08/11 08:41:37;;;;;;;6.47;2.45;;;36.80;47.40;;;;;;5079408;28;20024;-70
2022/08/11 08:44:07;;;;;;;4.00;1.80;;;38.10;45.90;;;;;;5075859;28;20052;-71
2022/08/11 08:46:36;;;;;;;2.70;1.67;;;39.10;45.30;;;;;;5075870;28;20032;-72
2022/08/11 08:49:03;;;;;;;4.57;1.98;;;39.00;44.70;;;;;;5074490;28;20044;-72
2022/08/11 08:51:35;;;;;;;2.88;1.70;;;40.30;44.30;;;;;;5075971;28;20389;-71
2022/08/11 08:54:24;;;;;;;5.43;1.60;;;41.00;43.90;;;;;;5074386;28;20035;-71
2022/08/11 08:56:53;;;;;;;3.65;2.17;;;40.60;43.30;;;;;;5091765;28;20381;-71
2022/08/11 08:59:22;;;;;;;6.35;1.90;;;40.20;42.60;;;;;;5076386;28;20035;-71
2022/08/11 09:02:00;;;;;;;5.97;2.13;;;39.40;43.00;;;;;;5075715;28;20052;-71
2022/08/11 09:04:27;;;;;;;4.68;1.90;;;39.10;43.40;;;;;;5075567;28;20039;-71
2022/08/11 09:06:57;;;;;;;2.85;1.80;;;39.60;43.90;;;;;;5074276;28;20122;-71
2022/08/11 09:09:23;;;;;;;2.30;1.67;;;39.60;43.80;;;;;;5074206;28;20031;-71
2022/08/11 09:11:50;;;;;;;4.25;1.80;;;40.60;43.60;;;;;;5074842;28;20028;-71
2022/08/11 09:14:17;;;;;;;4.60;1.83;;;40.80;42.90;;;;;;5074456;28;20111;-71
2022/08/11 09:16:43;;;;;;;4.75;1.80;;;40.90;42.80;;;;;;5074834;28;20027;-71
2022/08/11 09:19:12;;;;;;;3.63;2.03;;;41.90;42.30;;;;;;5075911;28;20021;-71
2022/08/11 09:21:42;;;;;;;3.13;1.80;;;41.40;42.20;;;;;;5075450;28;20040;-71
2022/08/11 09:26:58;;;;;;;2.78;1.85;;;40.30;42.40;;;;;;5076485;28;20094;-71
2022/08/11 09:29:27;;;;;;;2.40;1.80;;;40.30;42.80;;;;;;5077332;28;20024;-71
2022/08/11 09:31:54;;;;;;;3.10;2.17;;;40.20;42.80;;;;;;5074927;28;20361;-71
2022/08/11 09:34:20;;;;;;;4.40;2.28;;;40.30;42.50;;;;;;5074878;28;20031;-71
2022/08/11 09:44:45;;;;;;;3.58;1.90;;;40.50;42.20;;;;;;5043895;28;20103;-72
2022/08/11 09:45:15;;;;;;;6.25;2.10;;;40.10;42.20;;;;;;5074598;28;20062;-71
2022/08/11 09:47:43;;;;;;;4.10;1.90;;;40.20;42.10;;;;;;5074672;28;20097;-71
2022/08/11 09:50:10;;;;;;;2.20;2.00;;;39.90;42.50;;;;;;5074725;28;20052;-71
2022/08/11 09:52:38;;;;;;;3.63;1.73;;;39.80;42.60;;;;;;5073075;28;20158;-70
2022/08/11 09:55:09;;;;;;;3.58;1.98;;;40.40;42.40;;;;;;5073142;28;20365;-73
2022/08/11 10:00:36;;;;;;;5.38;1.95;;;40.00;42.00;;;;;;5074918;28;20073;-71
2022/08/11 10:03:12;;;;;;;5.20;1.95;;;39.80;42.20;;;;;;5073194;28;20024;-71
2022/08/11 10:08:28;;;;;;;3.72;1.77;;;38.80;42.90;;;;;;5074194;28;20039;-71
2022/08/11 10:10:56;;;;;;;3.15;1.88;;;38.70;42.40;;;;;;5072967;28;20063;-72
2022/08/11 10:13:28;;;;;;;3.75;1.88;;;38.30;42.40;;;;;;5074526;28;20032;-72
2022/08/11 10:15:57;;;;;;;5.20;1.90;;;38.20;42.40;;;;;;5074350;28;20421;-71
2022/08/11 10:18:41;;;;;;;4.78;1.65;;;38.20;42.60;;;;;;5074098;28;20020;-72
2022/08/11 10:21:28;;;;;;;2.97;1.90;;;38.50;42.40;;;;;;5072774;28;20476;-71
2022/08/11 10:26:54;;;;;;;7.60;2.47;;;40.30;41.60;;;;;;5074343;28;20043;-72
2022/08/11 10:35:07;;;;;;;4.38;1.50;;;39.80;41.10;;;;;;5083761;28;20492;-72
2022/08/11 10:37:35;;;;;;;6.15;1.90;;;39.90;41.40;;;;;;5076908;28;20020;-70
2022/08/11 10:40:04;;;;;;;5.97;1.90;;;40.00;41.60;;;;;;5075590;28;20031;-70
2022/08/11 10:48:03;;;;;;;4.68;1.77;;;40.00;41.00;;;;;;5074209;28;20036;-71
2022/08/11 10:58:47;;;;;;;2.88;1.33;;;39.80;41.50;;;;;;5073541;28;20034;-68
2022/08/11 11:01:31;;;;;;;2.92;1.52;;;39.90;40.30;;;;;;5089513;28;20029;-69
2022/08/11 11:04:11;;;;;;;2.38;1.27;;;39.80;40.40;;;;;;5073484;28;20020;-69
2022/08/11 11:06:50;;;;;;;3.75;1.75;;;40.50;40.30;;;;;;5073719;28;20033;-70
2022/08/11 11:09:31;;;;;;;3.92;1.63;;;40.00;40.30;;;;;;5073726;28;20021;-69
2022/08/11 11:17:55;;;;;;;3.88;1.70;;;38.60;39.80;;;;;;5073955;28;20043;-70
2022/08/11 11:20:32;;;;;;;4.28;1.63;;;35.90;41.40;;;;;;5071798;28;20017;-71
2022/08/11 11:23:22;;;;;;;3.95;1.45;;;34.40;42.90;;;;;;5074883;28;20021;-71
2022/08/11 11:26:05;;;;;;;2.83;1.60;;;33.50;43.80;;;;;;5075322;28;20044;-69
2022/08/11 11:28:46;;;;;;;2.78;1.70;;;32.30;44.70;;;;;;5073457;28;20025;-69
2022/08/11 11:31:37;;;;;;;2.80;1.85;;;31.50;45.80;;;;;;5076036;28;20027;-69
2022/08/11 11:34:35;;;;;;;7.93;1.58;;;31.20;46.10;;;;;;5071862;28;20473;-71
2022/08/11 11:37:02;;;;;;;3.33;1.80;;;31.10;46.20;;;;;;5072037;28;20577;-70
2022/08/11 11:39:31;;;;;;;4.15;1.60;;;31.10;45.50;;;;;;5073115;28;20025;-69
2022/08/11 11:42:00;;;;;;;3.38;1.58;;;31.10;45.60;;;;;;5072478;28;20021;-69
2022/08/11 11:44:27;;;;;;;3.22;1.75;;;31.00;45.80;;;;;;5075249;28;20462;-70
2022/08/11 11:46:53;;;;;;;4.32;1.50;;;31.10;45.60;;;;;;5076954;28;20017;-71
2022/08/11 11:49:25;;;;;;;2.88;1.58;;;31.00;45.60;;;;;;5076164;28;20021;-69
2022/08/11 11:51:51;;;;;;;2.25;1.50;;;30.90;46.00;;;;;;5077301;28;20048;-71
2022/08/11 11:54:21;;;;;;;3.67;1.70;;;30.80;46.00;;;;;;5075412;28;20060;-70
2022/08/11 11:56:47;;;;;;;2.90;1.63;;;30.70;45.80;;;;;;5076653;28;20024;-70
2022/08/11 12:01:59;;;;;;;2.65;1.98;;;30.40;45.80;;;;;;5077095;28;20085;-70
2022/08/11 12:04:26;;;;;;;2.00;1.42;;;30.40;46.20;;;;;;5076632;28;20029;-70
2022/08/11 12:08:08;;;;;;;2.53;1.83;;;30.50;46.00;;;;;;5075075;28;20127;-69
2022/08/11 12:09:38;;;;;;;;;;;30.50;46.00;;;;;;5076714;28;20047;-70
2022/08/11 12:14:48;;;;;;;2.53;1.38;;;30.40;45.70;;;;;;5076566;28;20031;-70
2022/08/11 12:17:14;;;;;;;5.47;1.70;;;30.60;46.20;;;;;;5076269;28;20389;-70
2022/08/11 12:19:40;;;;;;;2.50;1.88;;;30.50;45.60;;;;;;5076518;28;20029;-70
2022/08/11 12:27:34;;;;;;;2.95;1.48;;;30.40;45.50;;;;;;5076349;28;20038;-70
2022/08/11 12:30:04;;;;;;;4.07;1.65;;;30.40;45.60;;;;;;5076328;28;20107;-70
2022/08/11 12:32:32;;;;;;;3.45;1.80;;;30.50;45.70;;;;;;5076229;28;20032;-70
2022/08/11 12:34:59;;;;;;;3.65;1.88;;;30.70;45.10;;;;;;5084341;28;20021;-69
2022/08/11 12:37:43;;;;;;;2.10;1.90;;;30.50;44.90;;;;;;5076595;28;20017;-70
2022/08/11 12:45:57;;;;;;;5.57;1.67;;;30.80;45.00;;;;;;5076032;28;20031;-70
2022/08/11 12:54:08;;;;;;;3.00;1.20;;;30.90;44.40;;;;;;5075947;28;20090;-70
2022/08/11 13:05:02;;;;;;;2.53;1.42;;;30.60;45.00;;;;;;5076265;28;20035;-72
2022/08/11 13:07:31;;;;;;;3.38;1.73;;;30.70;44.80;;;;;;5074490;28;20032;-73
2022/08/11 13:09:58;;;;;;;1.60;1.48;;;30.70;44.90;;;;;;5090810;28;20032;-72
2022/08/11 13:15:12;;;;;;;3.15;1.40;;;30.80;45.00;;;;;;5075886;28;20035;-73
2022/08/11 13:17:39;;;;;;;2.40;1.58;;;30.90;45.20;;;;;;5075561;28;20024;-71
2022/08/11 13:20:12;;;;;;;1.77;1.30;;;30.80;44.90;;;;;;5073886;28;20059;-72
2022/08/11 13:22:40;;;;;;;3.47;1.40;;;30.70;44.80;;;;;;5074319;28;20020;-72
2022/08/11 13:25:06;;;;;;;2.50;1.33;;;30.60;44.90;;;;;;5073937;28;20081;-72
2022/08/11 13:27:33;;;;;;;2.60;1.45;;;30.60;45.00;;;;;;5075493;28;20025;-71
2022/08/11 13:32:44;;;;;;;3.15;1.33;;;30.70;45.00;;;;;;5075310;28;20042;-71
2022/08/11 13:35:14;;;;;;;2.83;1.40;;;30.90;45.10;;;;;;5073464;28;20021;-72
2022/08/11 13:37:43;;;;;;;2.80;1.48;;;30.90;44.50;;;;;;5075096;28;20021;-71
2022/08/11 13:40:10;;;;;;;3.30;1.27;;;30.90;44.40;;;;;;5075583;28;20032;-71
2022/08/11 13:42:38;;;;;;;4.15;1.98;;;31.00;44.30;;;;;;5074518;28;20108;-71
2022/08/11 13:45:06;;;;;;;2.72;1.30;;;31.00;44.30;;;;;;5073457;28;20020;-71
2022/08/11 13:47:33;;;;;;;3.85;1.30;;;31.00;43.90;;;;;;5073397;28;20028;-72
2022/08/11 13:49:59;;;;;;;4.00;1.80;;;31.00;44.30;;;;;;5090269;28;20491;-72
2022/08/11 13:52:27;;;;;;;2.58;1.77;;;30.90;44.30;;;;;;5074514;28;20025;-72
2022/08/11 13:54:53;;;;;;;2.70;1.30;;;30.90;44.40;;;;;;5074706;28;20504;-72
2022/08/11 13:57:19;;;;;;;1.92;1.60;;;31.00;44.70;;;;;;5074873;28;20435;-71
2022/08/11 13:59:53;;;;;;;2.95;1.80;;;31.00;44.50;;;;;;5073177;28;20025;-72
2022/08/11 14:02:27;;;;;;;1.83;1.50;;;31.00;44.40;;;;;;5074491;28;20575;-72
2022/08/11 14:05:01;;;;;;;3.50;1.60;;;31.00;44.40;;;;;;5074163;28;20028;-72
2022/08/11 14:07:34;;;;;;;4.13;1.60;;;31.00;44.20;;;;;;5073116;28;20021;-71
2022/08/11 14:10:01;;;;;;;2.33;1.63;;;31.10;44.30;;;;;;5073576;28;20028;-70
2022/08/11 14:15:20;;;;;;;3.30;1.80;;;31.30;44.00;;;;;;5074006;28;20130;-70
2022/08/11 14:17:54;;;;;;;3.15;1.50;;;31.60;44.00;;;;;;5073977;28;20150;-69
2022/08/11 14:20:21;;;;;;;3.25;1.60;;;31.50;43.50;;;;;;5073434;28;20419;-69
2022/08/11 14:22:48;;;;;;;2.33;1.35;;;31.40;43.50;;;;;;5073203;28;20029;-69
2022/08/11 14:25:15;;;;;;;2.17;1.52;;;31.40;43.70;;;;;;5074017;28;20032;-69
2022/08/11 14:27:43;;;;;;;3.03;1.52;;;31.50;43.70;;;;;;5074335;28;20108;-68
2022/08/11 14:30:53;;;;;;;4.60;1.70;;;31.50;43.60;;;;;;5075481;28;20024;-70
2022/08/11 14:32:56;;;;;;;2.65;1.60;;;31.40;43.60;;;;;;5082270;28;20028;-71
2022/08/11 14:35:23;;;;;;;11.82;1.90;;;31.30;43.80;;;;;;5081081;28;20024;-70
2022/08/11 14:37:49;;;;;;;4.43;1.33;;;31.40;43.80;;;;;;5076836;28;20094;-70
2022/08/11 14:47:03;;;;;;;10.07;1.60;;;31.40;43.70;;;;;;5074826;28;20029;-70
2022/08/11 14:48:29;;;;;;;2.95;1.75;;;31.30;43.30;;;;;;5073694;28;20369;-68
2022/08/11 14:50:56;;;;;;;3.80;1.45;;;31.20;43.40;;;;;;5073106;28;20024;-68
2022/08/11 14:53:22;;;;;;;2.45;1.50;;;31.20;43.40;;;;;;5073231;28;20469;-68
2022/08/11 14:58:33;;;;;;;3.78;1.60;;;31.20;43.30;;;;;;5073040;28;20074;-69
2022/08/11 15:01:01;;;;;;;2.75;1.60;;;31.10;43.20;;;;;;5071370;28;20028;-67
2022/08/11 15:03:30;;;;;;;3.47;1.50;;;31.10;43.00;;;;;;5072659;28;20526;-69
2022/08/11 15:06:00;;;;;;;1.60;1.20;;;31.00;43.10;;;;;;5088814;28;20115;-68
2022/08/11 15:14:08;;;;;;;4.78;1.70;;;31.20;43.10;;;;;;5073300;28;20439;-69
2022/08/11 15:19:20;;;;;;;;;;;31.60;42.90;;;;;;5073592;28;20027;-68
2022/08/11 15:24:35;;;;;;;4.55;1.95;;;31.40;42.90;;;;;;5073567;28;20040;-69
2022/08/11 15:38:12;;;;;;;2.28;1.40;;;31.10;43.00;;;;;;5073052;28;20031;-68
2022/08/11 15:46:19;;;;;;;1.67;1.58;;;31.00;43.00;;;;;;5072433;28;20036;-67
2022/08/11 15:48:52;;;;;;;4.60;1.80;;;31.00;43.20;;;;;;5072557;28;20427;-68
2022/08/11 15:51:28;;;;;;;4.20;1.50;;;31.00;43.00;;;;;;5072705;28;20390;-67
2022/08/11 15:54:00;;;;;;;5.00;1.88;;;31.10;43.00;;;;;;5072648;28;20105;-67
2022/08/11 15:56:30;;;;;;;2.53;1.63;;;31.00;43.00;;;;;;5072438;28;20401;-68
2022/08/11 16:04:29;;;;;;;;;;;31.40;42.90;;;;;;5073617;28;20543;-68
2022/08/11 16:07:09;;;;;;;4.57;1.73;;;31.20;42.70;;;;;;5072333;28;19978;-68
2022/08/11 16:09:40;;;;;;;3.10;1.50;;;31.10;42.90;;;;;;5072943;28;20038;-68
2022/08/11 16:12:11;;;;;;;4.82;1.40;;;31.00;42.90;;;;;;5071389;28;20028;-68
2022/08/11 16:17:29;;;;;;;3.03;1.50;;;31.00;43.10;;;;;;5073194;28;20134;-68
2022/08/11 16:19:56;;;;;;;1.92;1.45;;;30.90;42.80;;;;;;5072466;28;20059;-68
2022/08/11 16:22:41;;;;;;;3.85;1.40;;;30.90;42.80;;;;;;5072371;28;20063;-68
2022/08/11 16:25:09;;;;;;;4.60;1.30;;;30.80;42.90;;;;;;5072357;28;20033;-67
2022/08/11 16:27:39;;;;;;;7.18;1.90;;;30.80;43.00;;;;;;5072743;28;20039;-68
2022/08/11 16:30:06;;;;;;;2.67;1.60;;;30.80;43.20;;;;;;5072290;28;20093;-68
2022/08/11 16:32:35;;;;;;;2.50;1.42;;;30.80;42.90;;;;;;5081214;28;20028;-68
2022/08/11 16:40:37;;;;;;;4.57;1.23;;;30.70;43.50;;;;;;5076727;28;20043;-68
2022/08/11 16:48:40;;;;;;;4.88;1.23;;;30.50;43.60;;;;;;5076143;28;20059;-68
2022/08/11 16:51:06;;;;;;;2.17;1.40;;;30.40;43.60;;;;;;5079557;28;20032;-67
2022/08/11 16:53:32;;;;;;;4.50;1.42;;;30.40;43.40;;;;;;5076098;28;20032;-67
2022/08/11 16:56:01;;;;;;;3.55;1.40;;;30.40;43.50;;;;;;5075506;28;20021;-69
2022/08/11 17:01:16;;;;;;;1.92;1.20;;;30.30;43.40;;;;;;5075529;28;20075;-70
2022/08/11 17:18:06;;;;;;;2.03;1.40;;;30.00;44.10;;;;;;5033265;28;20082;-68
2022/08/11 17:20:33;;;;;;;6.15;1.58;;;30.00;44.20;;;;;;5033121;28;20116;-68
2022/08/11 17:25:47;;;;;;;9.30;1.40;;;29.80;44.50;;;;;;5033021;28;20094;-68
2022/08/11 17:28:14;;;;;;;2.70;1.60;;;29.80;44.60;;;;;;5033077;28;20117;-68
2022/08/11 17:36:12;;;;;;;3.63;1.90;;;29.70;44.80;;;;;;5032888;28;20087;-69
2022/08/11 17:38:38;;;;;;;2.70;1.48;;;29.60;44.90;;;;;;5032809;28;20061;-68
2022/08/11 17:49:25;;;;;;;2.35;1.25;;;29.50;45.10;;;;;;5075226;28;20401;-69
2022/08/11 18:00:08;;;;;;;4.65;1.60;;;29.40;45.30;;;;;;5074763;28;20031;-72
2022/08/11 18:05:24;;;;;;;4.07;1.58;;;29.40;46.00;;;;;;5081805;28;20437;-71
